sensor_id;sensor_type;location;lat;lon;timestamp;P1;durP1;ratioP1;P2;durP2;ratioP2
18170;SDS011;9210;48.358;10.902;2023-02-18T00:01:39;4.10;;;1.97;;
18170;SDS011;9210;48.358;10.902;2023-02-18T00:04:08;5.57;;;1.90;;
18170;SDS011;9210;48.358;10.902;2023-02-18T00:06:36;4.53;;;1.90;;
18170;SDS011;9210;48.358;10.902;2023-02-18T00:09:05;4.00;;;1.60;;
18170;SDS011;9210;48.358;10.902;2023-02-18T00:11:36;3.47;;;1.83;;
18170;SDS011;9210;48.358;10.902;2023-02-18T00:14:05;3.90;;;1.83;;
18170;SDS011;9210;48.358;10.902;2023-02-18T00:16:34;3.07;;;1.60;;
18170;SDS011;9210;48.358;10.902;2023-02-18T00:19:04;3.13;;;1.73;;
18170;SDS011;9210;48.358;10.902;2023-02-18T00:21:33;2.87;;;1.77;;
18170;SDS011;9210;48.358;10.902;2023-02-18T00:24:02;3.53;;;1.57;;
18170;SDS011;9210;48.358;10.902;2023-02-18T00:26:31;4.93;;;1.57;;
18170;SDS011;9210;48.358;10.902;2023-02-18T00:29:01;3.77;;;1.70;;
18170;SDS011;9210;48.358;10.902;2023-02-18T00:31:30;3.47;;;1.90;;
18170;SDS011;9210;48.358;10.902;2023-02-18T00:34:00;2.10;;;1.37;;
18170;SDS011;9210;48.358;10.902;2023-02-18T00:36:28;3.10;;;1.60;;
18170;SDS011;9210;48.358;10.902;2023-02-18T00:38:58;3.03;;;1.40;;
18170;SDS011;9210;48.358;10.902;2023-02-18T00:41:29;5.43;;;1.80;;
18170;SDS011;9210;48.358;10.902;2023-02-18T00:43:57;2.50;;;1.40;;
18170;SDS011;9210;48.358;10.902;2023-02-18T00:46:28;4.07;;;1.50;;
18170;SDS011;9210;48.358;10.902;2023-02-18T00:48:59;3.33;;;1.67;;
18170;SDS011;9210;48.358;10.902;2023-02-18T00:51:27;4.53;;;1.70;;
18170;SDS011;9210;48.358;10.902;2023-02-18T00:53:56;2.40;;;1.40;;
18170;SDS011;9210;48.358;10.902;2023-02-18T00:56:25;3.07;;;1.70;;
18170;SDS011;9210;48.358;10.902;2023-02-18T00:58:53;3.93;;;1.60;;
18170;SDS011;9210;48.358;10.902;2023-02-18T01:01:22;3.23;;;1.73;;
18170;SDS011;9210;48.358;10.902;2023-02-18T01:03:52;2.37;;;1.60;;
18170;SDS011;9210;48.358;10.902;2023-02-18T01:06:20;3.37;;;1.53;;
18170;SDS011;9210;48.358;10.902;2023-02-18T01:08:49;6.10;;;1.67;;
18170;SDS011;9210;48.358;10.902;2023-02-18T01:11:18;2.70;;;1.60;;
18170;SDS011;9210;48.358;10.902;2023-02-18T01:13:46;2.90;;;1.87;;
18170;SDS011;9210;48.358;10.902;2023-02-18T01:16:15;3.33;;;1.80;;
18170;SDS011;9210;48.358;10.902;2023-02-18T01:18:45;3.47;;;1.80;;
18170;SDS011;9210;48.358;10.902;2023-02-18T01:21:15;3.40;;;1.90;;
18170;SDS011;9210;48.358;10.902;2023-02-18T01:23:43;4.47;;;2.10;;
18170;SDS011;9210;48.358;10.902;2023-02-18T01:26:14;4.70;;;1.80;;
18170;SDS011;9210;48.358;10.902;2023-02-18T01:28:42;2.40;;;1.60;;
18170;SDS011;9210;48.358;10.902;2023-02-18T01:31:11;3.03;;;1.77;;
18170;SDS011;9210;48.358;10.902;2023-02-18T01:33:41;3.80;;;1.57;;
18170;SDS011;9210;48.358;10.902;2023-02-18T01:36:09;4.50;;;2.27;;
18170;SDS011;9210;48.358;10.902;2023-02-18T01:38:39;3.30;;;1.87;;
18170;SDS011;9210;48.358;10.902;2023-02-18T01:41:08;5.93;;;2.10;;
18170;SDS011;9210;48.358;10.902;2023-02-18T01:43:37;4.07;;;1.90;;
18170;SDS011;9210;48.358;10.902;2023-02-18T01:46:12;3.40;;;2.10;;
18170;SDS011;9210;48.358;10.902;2023-02-18T01:48:45;3.50;;;1.70;;
18170;SDS011;9210;48.358;10.902;2023-02-18T01:51:16;3.53;;;2.00;;
18170;SDS011;9210;48.358;10.902;2023-02-18T01:53:49;3.07;;;2.00;;
18170;SDS011;9210;48.358;10.902;2023-02-18T01:56:22;3.93;;;2.03;;
18170;SDS011;9210;48.358;10.902;2023-02-18T01:58:52;6.77;;;1.90;;
18170;SDS011;9210;48.358;10.902;2023-02-18T02:01:21;4.70;;;1.80;;
18170;SDS011;9210;48.358;10.902;2023-02-18T02:03:50;3.77;;;1.77;;
18170;SDS011;9210;48.358;10.902;2023-02-18T02:06:20;4.60;;;1.90;;
18170;SDS011;9210;48.358;10.902;2023-02-18T02:08:52;3.70;;;1.73;;
18170;SDS011;9210;48.358;10.902;2023-02-18T02:11:26;3.33;;;1.90;;
18170;SDS011;9210;48.358;10.902;2023-02-18T02:14:00;3.63;;;1.90;;
18170;SDS011;9210;48.358;10.902;2023-02-18T02:16:30;4.70;;;1.73;;
18170;SDS011;9210;48.358;10.902;2023-02-18T02:19:03;2.93;;;1.63;;
18170;SDS011;9210;48.358;10.902;2023-02-18T02:27:13;3.73;;;1.67;;
18170;SDS011;9210;48.358;10.902;2023-02-18T02:32:35;3.40;;;1.70;;
18170;SDS011;9210;48.358;10.902;2023-02-18T02:35:12;3.03;;;1.60;;
18170;SDS011;9210;48.358;10.902;2023-02-18T02:37:47;2.10;;;1.40;;
18170;SDS011;9210;48.358;10.902;2023-02-18T02:40:19;4.63;;;1.77;;
18170;SDS011;9210;48.358;10.902;2023-02-18T02:42:52;2.73;;;1.70;;
18170;SDS011;9210;48.358;10.902;2023-02-18T02:45:32;3.57;;;1.80;;
18170;SDS011;9210;48.358;10.902;2023-02-18T02:48:03;2.30;;;1.50;;
18170;SDS011;9210;48.358;10.902;2023-02-18T02:50:36;2.90;;;1.70;;
18170;SDS011;9210;48.358;10.902;2023-02-18T02:53:10;2.53;;;1.40;;
18170;SDS011;9210;48.358;10.902;2023-02-18T02:55:41;2.20;;;1.40;;
18170;SDS011;9210;48.358;10.902;2023-02-18T02:58:10;3.03;;;1.77;;
18170;SDS011;9210;48.358;10.902;2023-02-18T03:00:44;3.20;;;1.70;;
18170;SDS011;9210;48.358;10.902;2023-02-18T03:03:24;2.80;;;1.87;;
18170;SDS011;9210;48.358;10.902;2023-02-18T03:06:00;3.40;;;1.93;;
18170;SDS011;9210;48.358;10.902;2023-02-18T03:08:35;4.33;;;1.70;;
18170;SDS011;9210;48.358;10.902;2023-02-18T03:11:07;3.47;;;1.80;;
18170;SDS011;9210;48.358;10.902;2023-02-18T03:13:41;3.17;;;1.93;;
18170;SDS011;9210;48.358;10.902;2023-02-18T03:16:16;3.63;;;2.00;;
18170;SDS011;9210;48.358;10.902;2023-02-18T03:18:47;2.70;;;1.90;;
18170;SDS011;9210;48.358;10.902;2023-02-18T03:21:21;1.87;;;1.70;;
18170;SDS011;9210;48.358;10.902;2023-02-18T03:23:52;2.27;;;1.60;;
18170;SDS011;9210;48.358;10.902;2023-02-18T03:26:22;4.70;;;1.80;;
18170;SDS011;9210;48.358;10.902;2023-02-18T03:28:52;2.90;;;1.77;;
18170;SDS011;9210;48.358;10.902;2023-02-18T03:31:24;4.90;;;1.70;;
18170;SDS011;9210;48.358;10.902;2023-02-18T03:33:54;4.03;;;1.70;;
18170;SDS011;9210;48.358;10.902;2023-02-18T03:36:25;2.93;;;1.50;;
18170;SDS011;9210;48.358;10.902;2023-02-18T03:38:55;3.97;;;1.50;;
18170;SDS011;9210;48.358;10.902;2023-02-18T03:41:26;2.30;;;1.50;;
18170;SDS011;9210;48.358;10.902;2023-02-18T03:43:57;5.53;;;1.57;;
18170;SDS011;9210;48.358;10.902;2023-02-18T03:46:27;4.83;;;1.70;;
18170;SDS011;9210;48.358;10.902;2023-02-18T03:48:56;3.10;;;1.80;;
18170;SDS011;9210;48.358;10.902;2023-02-18T03:51:26;1.90;;;1.43;;
18170;SDS011;9210;48.358;10.902;2023-02-18T03:53:55;3.03;;;1.60;;
18170;SDS011;9210;48.358;10.902;2023-02-18T03:56:24;3.03;;;1.77;;
18170;SDS011;9210;48.358;10.902;2023-02-18T03:58:52;3.03;;;1.60;;
18170;SDS011;9210;48.358;10.902;2023-02-18T04:01:21;2.63;;;1.30;;
18170;SDS011;9210;48.358;10.902;2023-02-18T04:03:50;2.83;;;1.50;;
18170;SDS011;9210;48.358;10.902;2023-02-18T04:06:20;1.90;;;1.50;;
18170;SDS011;9210;48.358;10.902;2023-02-18T04:08:50;1.93;;;1.57;;
18170;SDS011;9210;48.358;10.902;2023-02-18T04:11:19;4.80;;;1.70;;
18170;SDS011;9210;48.358;10.902;2023-02-18T04:13:47;3.13;;;1.63;;
18170;SDS011;9210;48.358;10.902;2023-02-18T04:16:15;1.57;;;1.40;;
18170;SDS011;9210;48.358;10.902;2023-02-18T04:18:44;3.10;;;1.40;;
18170;SDS011;9210;48.358;10.902;2023-02-18T04:21:12;2.13;;;1.37;;
18170;SDS011;9210;48.358;10.902;2023-02-18T04:23:41;2.00;;;1.60;;
18170;SDS011;9210;48.358;10.902;2023-02-18T04:26:11;2.60;;;1.63;;
18170;SDS011;9210;48.358;10.902;2023-02-18T04:28:39;1.43;;;1.20;;
18170;SDS011;9210;48.358;10.902;2023-02-18T04:31:08;2.00;;;1.40;;
18170;SDS011;9210;48.358;10.902;2023-02-18T04:33:37;4.97;;;1.67;;
18170;SDS011;9210;48.358;10.902;2023-02-18T04:36:06;1.80;;;1.20;;
18170;SDS011;9210;48.358;10.902;2023-02-18T04:38:35;1.40;;;1.13;;
18170;SDS011;9210;48.358;10.902;2023-02-18T04:41:03;1.80;;;1.30;;
18170;SDS011;9210;48.358;10.902;2023-02-18T04:43:33;2.73;;;1.40;;
18170;SDS011;9210;48.358;10.902;2023-02-18T04:46:03;2.37;;;1.30;;
18170;SDS011;9210;48.358;10.902;2023-02-18T04:48:32;2.33;;;1.20;;
18170;SDS011;9210;48.358;10.902;2023-02-18T04:51:01;1.80;;;1.30;;
18170;SDS011;9210;48.358;10.902;2023-02-18T04:53:30;2.10;;;1.30;;
18170;SDS011;9210;48.358;10.902;2023-02-18T04:55:59;2.30;;;1.30;;
18170;SDS011;9210;48.358;10.902;2023-02-18T04:58:27;2.10;;;1.10;;
18170;SDS011;9210;48.358;10.902;2023-02-18T05:00:59;1.90;;;1.20;;
18170;SDS011;9210;48.358;10.902;2023-02-18T05:03:28;1.33;;;1.20;;
18170;SDS011;9210;48.358;10.902;2023-02-18T05:05:57;1.70;;;1.20;;
18170;SDS011;9210;48.358;10.902;2023-02-18T05:08:25;1.77;;;1.23;;
18170;SDS011;9210;48.358;10.902;2023-02-18T05:10:54;2.23;;;1.43;;
18170;SDS011;9210;48.358;10.902;2023-02-18T05:13:22;1.70;;;1.20;;
18170;SDS011;9210;48.358;10.902;2023-02-18T05:15:51;2.50;;;1.20;;
18170;SDS011;9210;48.358;10.902;2023-02-18T05:18:21;1.53;;;1.10;;
18170;SDS011;9210;48.358;10.902;2023-02-18T05:20:49;2.33;;;1.17;;
18170;SDS011;9210;48.358;10.902;2023-02-18T05:23:18;2.20;;;1.07;;
18170;SDS011;9210;48.358;10.902;2023-02-18T05:25:46;2.27;;;1.17;;
18170;SDS011;9210;48.358;10.902;2023-02-18T05:28:15;1.10;;;0.87;;
18170;SDS011;9210;48.358;10.902;2023-02-18T05:30:43;2.33;;;1.17;;
18170;SDS011;9210;48.358;10.902;2023-02-18T05:33:13;1.77;;;0.97;;
18170;SDS011;9210;48.358;10.902;2023-02-18T05:35:43;1.67;;;1.10;;
18170;SDS011;9210;48.358;10.902;2023-02-18T05:38:12;1.70;;;1.20;;
18170;SDS011;9210;48.358;10.902;2023-02-18T05:40:43;2.17;;;1.00;;
18170;SDS011;9210;48.358;10.902;2023-02-18T05:43:11;2.00;;;1.20;;
18170;SDS011;9210;48.358;10.902;2023-02-18T05:45:40;1.70;;;1.13;;
18170;SDS011;9210;48.358;10.902;2023-02-18T05:48:08;1.00;;;0.80;;
18170;SDS011;9210;48.358;10.902;2023-02-18T05:50:37;1.83;;;1.00;;
18170;SDS011;9210;48.358;10.902;2023-02-18T05:53:06;1.30;;;1.00;;
18170;SDS011;9210;48.358;10.902;2023-02-18T05:55:35;1.33;;;1.00;;
18170;SDS011;9210;48.358;10.902;2023-02-18T05:58:08;1.07;;;0.90;;
18170;SDS011;9210;48.358;10.902;2023-02-18T06:00:36;2.87;;;1.10;;
18170;SDS011;9210;48.358;10.902;2023-02-18T06:03:05;1.50;;;1.10;;
18170;SDS011;9210;48.358;10.902;2023-02-18T06:05:33;1.73;;;1.10;;
18170;SDS011;9210;48.358;10.902;2023-02-18T06:08:02;1.57;;;1.20;;
18170;SDS011;9210;48.358;10.902;2023-02-18T06:10:32;1.90;;;1.00;;
18170;SDS011;9210;48.358;10.902;2023-02-18T06:13:13;1.23;;;1.03;;
18170;SDS011;9210;48.358;10.902;2023-02-18T06:15:41;1.87;;;1.03;;
18170;SDS011;9210;48.358;10.902;2023-02-18T06:18:10;1.40;;;1.10;;
18170;SDS011;9210;48.358;10.902;2023-02-18T06:20:39;1.90;;;1.13;;
18170;SDS011;9210;48.358;10.902;2023-02-18T06:23:07;1.97;;;1.20;;
18170;SDS011;9210;48.358;10.902;2023-02-18T06:25:38;2.03;;;1.17;;
18170;SDS011;9210;48.358;10.902;2023-02-18T06:28:07;2.43;;;1.30;;
18170;SDS011;9210;48.358;10.902;2023-02-18T06:30:36;1.30;;;1.10;;
18170;SDS011;9210;48.358;10.902;2023-02-18T06:33:04;2.10;;;1.20;;
18170;SDS011;9210;48.358;10.902;2023-02-18T06:35:33;3.03;;;1.40;;
18170;SDS011;9210;48.358;10.902;2023-02-18T06:38:01;2.57;;;1.50;;
18170;SDS011;9210;48.358;10.902;2023-02-18T06:40:30;1.70;;;1.17;;
18170;SDS011;9210;48.358;10.902;2023-02-18T06:43:00;2.37;;;1.20;;
18170;SDS011;9210;48.358;10.902;2023-02-18T06:45:28;2.13;;;1.30;;
18170;SDS011;9210;48.358;10.902;2023-02-18T06:47:57;1.73;;;1.40;;
18170;SDS011;9210;48.358;10.902;2023-02-18T06:50:25;1.23;;;1.00;;
18170;SDS011;9210;48.358;10.902;2023-02-18T06:52:54;1.70;;;1.37;;
18170;SDS011;9210;48.358;10.902;2023-02-18T06:55:22;2.03;;;1.40;;
18170;SDS011;9210;48.358;10.902;2023-02-18T06:57:51;1.77;;;1.10;;
18170;SDS011;9210;48.358;10.902;2023-02-18T07:00:21;2.40;;;1.10;;
18170;SDS011;9210;48.358;10.902;2023-02-18T07:02:50;2.03;;;1.20;;
18170;SDS011;9210;48.358;10.902;2023-02-18T07:05:19;2.40;;;1.30;;
18170;SDS011;9210;48.358;10.902;2023-02-18T07:07:47;1.67;;;1.17;;
18170;SDS011;9210;48.358;10.902;2023-02-18T07:10:16;3.57;;;1.20;;
18170;SDS011;9210;48.358;10.902;2023-02-18T07:12:45;1.20;;;1.10;;
18170;SDS011;9210;48.358;10.902;2023-02-18T07:15:13;3.27;;;1.00;;
18170;SDS011;9210;48.358;10.902;2023-02-18T07:17:43;1.67;;;1.20;;
18170;SDS011;9210;48.358;10.902;2023-02-18T07:20:12;1.60;;;1.10;;
18170;SDS011;9210;48.358;10.902;2023-02-18T07:22:41;1.73;;;1.30;;
18170;SDS011;9210;48.358;10.902;2023-02-18T07:25:09;2.07;;;1.10;;
18170;SDS011;9210;48.358;10.902;2023-02-18T07:27:38;2.13;;;1.20;;
18170;SDS011;9210;48.358;10.902;2023-02-18T07:30:07;2.20;;;1.10;;
18170;SDS011;9210;48.358;10.902;2023-02-18T07:32:38;1.30;;;1.00;;
18170;SDS011;9210;48.358;10.902;2023-02-18T07:35:09;2.07;;;1.00;;
18170;SDS011;9210;48.358;10.902;2023-02-18T07:37:37;1.27;;;1.00;;
18170;SDS011;9210;48.358;10.902;2023-02-18T07:40:08;1.70;;;0.97;;
18170;SDS011;9210;48.358;10.902;2023-02-18T07:42:37;1.10;;;0.90;;
18170;SDS011;9210;48.358;10.902;2023-02-18T07:45:08;1.40;;;1.00;;
18170;SDS011;9210;48.358;10.902;2023-02-18T07:47:37;2.43;;;1.10;;
18170;SDS011;9210;48.358;10.902;2023-02-18T07:50:09;1.47;;;0.90;;
18170;SDS011;9210;48.358;10.902;2023-02-18T07:52:40;1.60;;;1.07;;
18170;SDS011;9210;48.358;10.902;2023-02-18T07:55:09;1.73;;;0.90;;
18170;SDS011;9210;48.358;10.902;2023-02-18T07:57:37;1.50;;;1.03;;
18170;SDS011;9210;48.358;10.902;2023-02-18T08:00:20;1.30;;;0.90;;
18170;SDS011;9210;48.358;10.902;2023-02-18T08:02:48;1.27;;;1.00;;
18170;SDS011;9210;48.358;10.902;2023-02-18T08:05:18;1.20;;;0.90;;
18170;SDS011;9210;48.358;10.902;2023-02-18T08:07:47;1.50;;;1.00;;
18170;SDS011;9210;48.358;10.902;2023-02-18T08:10:16;1.13;;;0.87;;
18170;SDS011;9210;48.358;10.902;2023-02-18T08:12:44;0.83;;;0.80;;
18170;SDS011;9210;48.358;10.902;2023-02-18T08:15:15;1.30;;;1.00;;
18170;SDS011;9210;48.358;10.902;2023-02-18T08:17:45;2.13;;;0.90;;
18170;SDS011;9210;48.358;10.902;2023-02-18T08:20:15;1.33;;;0.80;;
18170;SDS011;9210;48.358;10.902;2023-02-18T08:22:48;1.47;;;1.00;;
18170;SDS011;9210;48.358;10.902;2023-02-18T08:25:16;2.40;;;1.00;;
18170;SDS011;9210;48.358;10.902;2023-02-18T08:27:55;1.00;;;0.90;;
18170;SDS011;9210;48.358;10.902;2023-02-18T08:30:24;1.10;;;0.90;;
18170;SDS011;9210;48.358;10.902;2023-02-18T08:32:53;2.00;;;0.90;;
18170;SDS011;9210;48.358;10.902;2023-02-18T08:35:21;1.53;;;0.80;;
18170;SDS011;9210;48.358;10.902;2023-02-18T08:37:51;1.17;;;0.80;;
18170;SDS011;9210;48.358;10.902;2023-02-18T08:40:21;2.70;;;0.80;;
18170;SDS011;9210;48.358;10.902;2023-02-18T08:42:50;1.90;;;0.80;;
18170;SDS011;9210;48.358;10.902;2023-02-18T08:45:18;3.90;;;0.90;;
18170;SDS011;9210;48.358;10.902;2023-02-18T08:47:47;1.80;;;1.10;;
18170;SDS011;9210;48.358;10.902;2023-02-18T08:50:35;1.60;;;0.83;;
18170;SDS011;9210;48.358;10.902;2023-02-18T08:53:05;2.07;;;0.83;;
18170;SDS011;9210;48.358;10.902;2023-02-18T08:55:34;1.30;;;0.87;;
18170;SDS011;9210;48.358;10.902;2023-02-18T08:58:03;1.27;;;0.80;;
18170;SDS011;9210;48.358;10.902;2023-02-18T09:00:33;0.90;;;0.80;;
18170;SDS011;9210;48.358;10.902;2023-02-18T09:03:02;1.50;;;0.70;;
18170;SDS011;9210;48.358;10.902;2023-02-18T09:05:31;1.50;;;1.00;;
18170;SDS011;9210;48.358;10.902;2023-02-18T09:08:02;1.20;;;0.77;;
18170;SDS011;9210;48.358;10.902;2023-02-18T09:10:34;1.63;;;0.80;;
18170;SDS011;9210;48.358;10.902;2023-02-18T09:13:04;2.33;;;0.80;;
18170;SDS011;9210;48.358;10.902;2023-02-18T09:15:34;1.03;;;0.67;;
18170;SDS011;9210;48.358;10.902;2023-02-18T09:18:03;1.97;;;0.70;;
18170;SDS011;9210;48.358;10.902;2023-02-18T09:20:32;1.63;;;0.90;;
18170;SDS011;9210;48.358;10.902;2023-02-18T09:23:01;1.30;;;0.80;;
18170;SDS011;9210;48.358;10.902;2023-02-18T09:25:29;1.40;;;0.90;;
18170;SDS011;9210;48.358;10.902;2023-02-18T09:27:59;1.10;;;0.70;;
18170;SDS011;9210;48.358;10.902;2023-02-18T09:30:28;0.93;;;0.70;;
18170;SDS011;9210;48.358;10.902;2023-02-18T09:32:56;1.43;;;0.80;;
18170;SDS011;9210;48.358;10.902;2023-02-18T09:35:25;1.17;;;0.70;;
18170;SDS011;9210;48.358;10.902;2023-02-18T09:37:53;0.90;;;0.73;;
18170;SDS011;9210;48.358;10.902;2023-02-18T09:40:23;1.70;;;0.90;;
18170;SDS011;9210;48.358;10.902;2023-02-18T09:42:53;1.13;;;0.63;;
18170;SDS011;9210;48.358;10.902;2023-02-18T09:45:23;0.90;;;0.70;;
18170;SDS011;9210;48.358;10.902;2023-02-18T09:47:52;1.07;;;0.70;;
18170;SDS011;9210;48.358;10.902;2023-02-18T09:50:22;1.47;;;0.63;;
18170;SDS011;9210;48.358;10.902;2023-02-18T09:52:51;0.80;;;0.60;;
18170;SDS011;9210;48.358;10.902;2023-02-18T09:55:21;0.60;;;0.53;;
18170;SDS011;9210;48.358;10.902;2023-02-18T09:57:50;1.67;;;0.50;;
18170;SDS011;9210;48.358;10.902;2023-02-18T10:00:21;0.67;;;0.60;;
18170;SDS011;9210;48.358;10.902;2023-02-18T10:02:55;1.30;;;0.70;;
18170;SDS011;9210;48.358;10.902;2023-02-18T10:05:25;0.90;;;0.60;;
18170;SDS011;9210;48.358;10.902;2023-02-18T10:07:55;0.60;;;0.60;;
18170;SDS011;9210;48.358;10.902;2023-02-18T10:10:28;2.70;;;0.60;;
18170;SDS011;9210;48.358;10.902;2023-02-18T10:12:58;0.87;;;0.50;;
18170;SDS011;9210;48.358;10.902;2023-02-18T10:15:27;1.00;;;0.60;;
18170;SDS011;9210;48.358;10.902;2023-02-18T10:17:57;1.10;;;0.70;;
18170;SDS011;9210;48.358;10.902;2023-02-18T10:20:28;3.00;;;0.70;;
18170;SDS011;9210;48.358;10.902;2023-02-18T10:22:57;1.30;;;0.70;;
18170;SDS011;9210;48.358;10.902;2023-02-18T10:25:28;2.07;;;0.60;;
18170;SDS011;9210;48.358;10.902;2023-02-18T10:27:57;1.83;;;0.70;;
18170;SDS011;9210;48.358;10.902;2023-02-18T10:30:28;1.07;;;0.70;;
18170;SDS011;9210;48.358;10.902;2023-02-18T10:33:06;1.30;;;0.60;;
18170;SDS011;9210;48.358;10.902;2023-02-18T10:35:42;0.80;;;0.60;;
18170;SDS011;9210;48.358;10.902;2023-02-18T10:38:12;1.23;;;0.80;;
18170;SDS011;9210;48.358;10.902;2023-02-18T10:40:47;1.93;;;0.70;;
18170;SDS011;9210;48.358;10.902;2023-02-18T10:43:21;2.93;;;0.70;;
18170;SDS011;9210;48.358;10.902;2023-02-18T10:45:54;0.93;;;0.70;;
18170;SDS011;9210;48.358;10.902;2023-02-18T10:48:30;4.30;;;0.80;;
18170;SDS011;9210;48.358;10.902;2023-02-18T10:51:03;1.97;;;0.90;;
18170;SDS011;9210;48.358;10.902;2023-02-18T10:53:37;2.00;;;0.73;;
18170;SDS011;9210;48.358;10.902;2023-02-18T10:56:08;1.87;;;0.63;;
18170;SDS011;9210;48.358;10.902;2023-02-18T10:58:45;1.80;;;0.80;;
18170;SDS011;9210;48.358;10.902;2023-02-18T11:01:15;1.23;;;0.80;;
18170;SDS011;9210;48.358;10.902;2023-02-18T11:03:47;1.20;;;0.80;;
18170;SDS011;9210;48.358;10.902;2023-02-18T11:06:18;1.43;;;0.90;;
18170;SDS011;9210;48.358;10.902;2023-02-18T11:08:47;1.30;;;0.90;;
18170;SDS011;9210;48.358;10.902;2023-02-18T11:11:19;1.80;;;0.70;;
18170;SDS011;9210;48.358;10.902;2023-02-18T11:13:51;2.00;;;0.90;;
18170;SDS011;9210;48.358;10.902;2023-02-18T11:16:20;1.93;;;0.60;;
18170;SDS011;9210;48.358;10.902;2023-02-18T11:18:51;1.40;;;0.90;;
18170;SDS011;9210;48.358;10.902;2023-02-18T11:21:23;2.17;;;0.60;;
18170;SDS011;9210;48.358;10.902;2023-02-18T11:23:53;1.93;;;0.77;;
18170;SDS011;9210;48.358;10.902;2023-02-18T11:26:24;1.67;;;0.50;;
18170;SDS011;9210;48.358;10.902;2023-02-18T11:28:56;1.53;;;0.80;;
18170;SDS011;9210;48.358;10.902;2023-02-18T11:31:26;0.97;;;0.70;;
18170;SDS011;9210;48.358;10.902;2023-02-18T11:34:00;1.37;;;0.60;;
18170;SDS011;9210;48.358;10.902;2023-02-18T11:36:31;0.90;;;0.73;;
18170;SDS011;9210;48.358;10.902;2023-02-18T11:39:01;1.13;;;0.60;;
18170;SDS011;9210;48.358;10.902;2023-02-18T11:41:33;0.73;;;0.60;;
18170;SDS011;9210;48.358;10.902;2023-02-18T11:44:04;1.27;;;0.70;;
18170;SDS011;9210;48.358;10.902;2023-02-18T11:46:33;2.47;;;0.70;;
18170;SDS011;9210;48.358;10.902;2023-02-18T11:49:20;1.70;;;0.83;;
18170;SDS011;9210;48.358;10.902;2023-02-18T11:51:49;1.10;;;0.70;;
18170;SDS011;9210;48.358;10.902;2023-02-18T11:54:21;1.30;;;0.70;;
18170;SDS011;9210;48.358;10.902;2023-02-18T11:56:54;1.20;;;0.70;;
18170;SDS011;9210;48.358;10.902;2023-02-18T11:59:25;1.87;;;1.00;;
18170;SDS011;9210;48.358;10.902;2023-02-18T12:01:56;1.50;;;0.73;;
18170;SDS011;9210;48.358;10.902;2023-02-18T12:04:30;1.17;;;0.63;;
18170;SDS011;9210;48.358;10.902;2023-02-18T12:07:04;1.27;;;0.80;;
18170;SDS011;9210;48.358;10.902;2023-02-18T12:09:36;0.97;;;0.67;;
18170;SDS011;9210;48.358;10.902;2023-02-18T12:12:05;1.70;;;0.77;;
18170;SDS011;9210;48.358;10.902;2023-02-18T12:14:36;0.83;;;0.70;;
18170;SDS011;9210;48.358;10.902;2023-02-18T12:17:10;2.20;;;0.73;;
18170;SDS011;9210;48.358;10.902;2023-02-18T12:19:45;1.47;;;1.00;;
18170;SDS011;9210;48.358;10.902;2023-02-18T12:22:20;0.70;;;0.60;;
18170;SDS011;9210;48.358;10.902;2023-02-18T12:24:55;2.77;;;0.60;;
18170;SDS011;9210;48.358;10.902;2023-02-18T12:27:30;1.37;;;0.77;;
18170;SDS011;9210;48.358;10.902;2023-02-18T12:30:06;2.00;;;0.60;;
18170;SDS011;9210;48.358;10.902;2023-02-18T12:32:42;2.50;;;0.70;;
18170;SDS011;9210;48.358;10.902;2023-02-18T12:35:21;1.20;;;0.57;;
18170;SDS011;9210;48.358;10.902;2023-02-18T12:37:58;4.50;;;0.70;;
18170;SDS011;9210;48.358;10.902;2023-02-18T12:40:36;0.80;;;0.60;;
18170;SDS011;9210;48.358;10.902;2023-02-18T12:43:08;1.70;;;0.63;;
18170;SDS011;9210;48.358;10.902;2023-02-18T12:45:57;0.93;;;0.60;;
18170;SDS011;9210;48.358;10.902;2023-02-18T12:48:33;0.77;;;0.60;;
18170;SDS011;9210;48.358;10.902;2023-02-18T12:51:12;0.63;;;0.60;;
18170;SDS011;9210;48.358;10.902;2023-02-18T12:56:36;0.70;;;0.50;;
18170;SDS011;9210;48.358;10.902;2023-02-18T12:59:11;0.70;;;0.60;;
18170;SDS011;9210;48.358;10.902;2023-02-18T13:01:44;1.10;;;0.60;;
18170;SDS011;9210;48.358;10.902;2023-02-18T13:04:21;0.83;;;0.50;;
18170;SDS011;9210;48.358;10.902;2023-02-18T13:07:09;1.17;;;0.63;;
18170;SDS011;9210;48.358;10.902;2023-02-18T13:09:46;1.27;;;0.63;;
18170;SDS011;9210;48.358;10.902;2023-02-18T13:12:20;1.37;;;0.60;;
18170;SDS011;9210;48.358;10.902;2023-02-18T13:14:52;1.83;;;0.70;;
18170;SDS011;9210;48.358;10.902;2023-02-18T13:17:22;1.63;;;0.73;;
18170;SDS011;9210;48.358;10.902;2023-02-18T13:19:53;2.60;;;0.80;;
18170;SDS011;9210;48.358;10.902;2023-02-18T13:22:24;2.90;;;0.70;;
18170;SDS011;9210;48.358;10.902;2023-02-18T13:24:54;1.80;;;0.70;;
18170;SDS011;9210;48.358;10.902;2023-02-18T13:27:24;1.97;;;0.70;;
18170;SDS011;9210;48.358;10.902;2023-02-18T13:29:59;1.37;;;0.70;;
18170;SDS011;9210;48.358;10.902;2023-02-18T13:32:32;1.60;;;0.67;;
18170;SDS011;9210;48.358;10.902;2023-02-18T13:35:04;1.13;;;0.70;;
18170;SDS011;9210;48.358;10.902;2023-02-18T13:37:38;1.73;;;0.90;;
18170;SDS011;9210;48.358;10.902;2023-02-18T13:40:13;1.20;;;0.80;;
18170;SDS011;9210;48.358;10.902;2023-02-18T13:42:44;1.83;;;0.80;;
18170;SDS011;9210;48.358;10.902;2023-02-18T13:48:09;0.90;;;0.60;;
18170;SDS011;9210;48.358;10.902;2023-02-18T13:50:48;1.20;;;0.70;;
18170;SDS011;9210;48.358;10.902;2023-02-18T13:53:20;2.53;;;0.90;;
18170;SDS011;9210;48.358;10.902;2023-02-18T13:55:51;1.13;;;0.70;;
18170;SDS011;9210;48.358;10.902;2023-02-18T13:58:21;2.30;;;0.70;;
18170;SDS011;9210;48.358;10.902;2023-02-18T14:00:52;1.30;;;0.80;;
18170;SDS011;9210;48.358;10.902;2023-02-18T14:03:35;3.53;;;0.90;;
18170;SDS011;9210;48.358;10.902;2023-02-18T14:06:14;1.50;;;0.70;;
18170;SDS011;9210;48.358;10.902;2023-02-18T14:08:44;0.70;;;0.60;;
18170;SDS011;9210;48.358;10.902;2023-02-18T14:11:23;0.73;;;0.70;;
18170;SDS011;9210;48.358;10.902;2023-02-18T14:13:53;1.37;;;0.70;;
18170;SDS011;9210;48.358;10.902;2023-02-18T14:16:22;1.37;;;0.70;;
18170;SDS011;9210;48.358;10.902;2023-02-18T14:18:58;1.30;;;0.70;;
18170;SDS011;9210;48.358;10.902;2023-02-18T14:21:37;1.00;;;0.60;;
18170;SDS011;9210;48.358;10.902;2023-02-18T14:24:07;2.10;;;0.77;;
18170;SDS011;9210;48.358;10.902;2023-02-18T14:26:38;3.23;;;0.80;;
18170;SDS011;9210;48.358;10.902;2023-02-18T14:29:09;1.50;;;0.80;;
18170;SDS011;9210;48.358;10.902;2023-02-18T14:37:31;0.77;;;0.60;;
18170;SDS011;9210;48.358;10.902;2023-02-18T14:40:16;0.93;;;0.70;;
18170;SDS011;9210;48.358;10.902;2023-02-18T14:42:49;2.80;;;0.90;;
18170;SDS011;9210;48.358;10.902;2023-02-18T14:45:24;3.03;;;0.80;;
18170;SDS011;9210;48.358;10.902;2023-02-18T14:48:06;1.03;;;0.80;;
18170;SDS011;9210;48.358;10.902;2023-02-18T14:50:40;2.37;;;0.93;;
18170;SDS011;9210;48.358;10.902;2023-02-18T14:53:10;2.43;;;0.90;;
18170;SDS011;9210;48.358;10.902;2023-02-18T14:55:45;2.37;;;0.70;;
18170;SDS011;9210;48.358;10.902;2023-02-18T14:58:23;1.43;;;0.80;;
18170;SDS011;9210;48.358;10.902;2023-02-18T15:00:53;3.13;;;0.80;;
18170;SDS011;9210;48.358;10.902;2023-02-18T15:03:22;1.20;;;0.83;;
18170;SDS011;9210;48.358;10.902;2023-02-18T15:05:53;1.00;;;0.80;;
18170;SDS011;9210;48.358;10.902;2023-02-18T15:08:22;1.20;;;0.90;;
18170;SDS011;9210;48.358;10.902;2023-02-18T15:10:55;2.00;;;0.77;;
18170;SDS011;9210;48.358;10.902;2023-02-18T15:13:25;1.23;;;0.80;;
18170;SDS011;9210;48.358;10.902;2023-02-18T15:15:55;3.57;;;1.00;;
18170;SDS011;9210;48.358;10.902;2023-02-18T15:18:27;2.83;;;0.93;;
18170;SDS011;9210;48.358;10.902;2023-02-18T15:20:58;3.40;;;1.00;;
18170;SDS011;9210;48.358;10.902;2023-02-18T15:23:28;2.37;;;1.10;;
18170;SDS011;9210;48.358;10.902;2023-02-18T15:25:58;1.37;;;0.87;;
18170;SDS011;9210;48.358;10.902;2023-02-18T15:28:27;2.47;;;1.20;;
18170;SDS011;9210;48.358;10.902;2023-02-18T15:30:56;2.03;;;1.00;;